sensor_id;sensor_type;location;lat;lon;timestamp;P1;durP1;ratioP1;P2;durP2;ratioP2
14187;SDS011;7175;51.978;5.330;2023-02-15T00:02:00;96.90;;;90.50;;
14187;SDS011;7175;51.978;5.330;2023-02-15T00:04:29;99.23;;;92.63;;
14187;SDS011;7175;51.978;5.330;2023-02-15T00:07:13;101.13;;;94.53;;
14187;SDS011;7175;51.978;5.330;2023-02-15T00:09:42;102.77;;;94.97;;
14187;SDS011;7175;51.978;5.330;2023-02-15T00:12:12;98.43;;;91.63;;
14187;SDS011;7175;51.978;5.330;2023-02-15T00:14:40;100.57;;;93.67;;
14187;SDS011;7175;51.978;5.330;2023-02-15T00:17:08;105.03;;;97.93;;
14187;SDS011;7175;51.978;5.330;2023-02-15T00:19:37;102.40;;;95.37;;
14187;SDS011;7175;51.978;5.330;2023-02-15T00:22:06;100.60;;;93.60;;
14187;SDS011;7175;51.978;5.330;2023-02-15T00:24:36;100.53;;;93.53;;
14187;SDS011;7175;51.978;5.330;2023-02-15T00:27:05;99.87;;;92.77;;
14187;SDS011;7175;51.978;5.330;2023-02-15T00:29:33;101.57;;;94.43;;
14187;SDS011;7175;51.978;5.330;2023-02-15T00:32:01;101.20;;;94.10;;
14187;SDS011;7175;51.978;5.330;2023-02-15T00:34:29;103.00;;;95.80;;
14187;SDS011;7175;51.978;5.330;2023-02-15T00:36:57;103.27;;;95.87;;
14187;SDS011;7175;51.978;5.330;2023-02-15T00:39:25;104.77;;;97.07;;
14187;SDS011;7175;51.978;5.330;2023-02-15T00:41:56;103.80;;;96.17;;
14187;SDS011;7175;51.978;5.330;2023-02-15T00:44:25;104.13;;;96.60;;
14187;SDS011;7175;51.978;5.330;2023-02-15T00:46:53;105.27;;;97.67;;
14187;SDS011;7175;51.978;5.330;2023-02-15T00:49:21;104.23;;;96.73;;
14187;SDS011;7175;51.978;5.330;2023-02-15T00:51:49;108.77;;;100.80;;
14187;SDS011;7175;51.978;5.330;2023-02-15T00:54:17;107.17;;;99.37;;
14187;SDS011;7175;51.978;5.330;2023-02-15T00:56:45;106.03;;;98.23;;
14187;SDS011;7175;51.978;5.330;2023-02-15T00:59:15;105.80;;;98.03;;
14187;SDS011;7175;51.978;5.330;2023-02-15T01:01:43;107.27;;;99.30;;
14187;SDS011;7175;51.978;5.330;2023-02-15T01:04:11;106.93;;;99.23;;
14187;SDS011;7175;51.978;5.330;2023-02-15T01:06:39;107.00;;;99.40;;
14187;SDS011;7175;51.978;5.330;2023-02-15T01:09:07;109.87;;;101.97;;
14187;SDS011;7175;51.978;5.330;2023-02-15T01:11:35;110.70;;;102.70;;
14187;SDS011;7175;51.978;5.330;2023-02-15T01:14:03;112.67;;;104.47;;
14187;SDS011;7175;51.978;5.330;2023-02-15T01:16:33;109.20;;;101.33;;
14187;SDS011;7175;51.978;5.330;2023-02-15T01:19:01;108.20;;;100.50;;
14187;SDS011;7175;51.978;5.330;2023-02-15T01:21:30;105.40;;;97.90;;
14187;SDS011;7175;51.978;5.330;2023-02-15T01:24:00;107.57;;;99.87;;
14187;SDS011;7175;51.978;5.330;2023-02-15T01:26:28;107.30;;;99.50;;
14187;SDS011;7175;51.978;5.330;2023-02-15T01:28:56;108.67;;;100.77;;
14187;SDS011;7175;51.978;5.330;2023-02-15T01:31:24;112.10;;;103.50;;
14187;SDS011;7175;51.978;5.330;2023-02-15T01:33:54;107.63;;;99.63;;
14187;SDS011;7175;51.978;5.330;2023-02-15T01:36:22;106.70;;;98.80;;
14187;SDS011;7175;51.978;5.330;2023-02-15T01:38:50;111.70;;;103.27;;
14187;SDS011;7175;51.978;5.330;2023-02-15T01:41:18;108.77;;;100.77;;
14187;SDS011;7175;51.978;5.330;2023-02-15T01:43:54;111.43;;;103.23;;
14187;SDS011;7175;51.978;5.330;2023-02-15T01:46:24;109.50;;;101.43;;
14187;SDS011;7175;51.978;5.330;2023-02-15T01:48:59;109.13;;;101.23;;
14187;SDS011;7175;51.978;5.330;2023-02-15T01:51:31;111.13;;;103.13;;
14187;SDS011;7175;51.978;5.330;2023-02-15T01:54:05;111.87;;;103.57;;
14187;SDS011;7175;51.978;5.330;2023-02-15T01:56:37;110.20;;;101.83;;
14187;SDS011;7175;51.978;5.330;2023-02-15T01:59:08;109.17;;;101.30;;
14187;SDS011;7175;51.978;5.330;2023-02-15T02:01:40;111.37;;;103.37;;
14187;SDS011;7175;51.978;5.330;2023-02-15T02:04:11;112.27;;;104.27;;
14187;SDS011;7175;51.978;5.330;2023-02-15T02:06:44;113.47;;;105.30;;
14187;SDS011;7175;51.978;5.330;2023-02-15T02:09:14;113.73;;;105.73;;
14187;SDS011;7175;51.978;5.330;2023-02-15T02:11:42;111.10;;;103.30;;
14187;SDS011;7175;51.978;5.330;2023-02-15T02:14:14;111.20;;;103.30;;
14187;SDS011;7175;51.978;5.330;2023-02-15T02:16:45;111.80;;;103.90;;
14187;SDS011;7175;51.978;5.330;2023-02-15T02:19:27;112.97;;;104.97;;
14187;SDS011;7175;51.978;5.330;2023-02-15T02:22:31;111.57;;;103.67;;
14187;SDS011;7175;51.978;5.330;2023-02-15T02:25:27;110.77;;;102.87;;
14187;SDS011;7175;51.978;5.330;2023-02-15T02:28:25;114.17;;;106.03;;
14187;SDS011;7175;51.978;5.330;2023-02-15T02:31:21;113.20;;;105.20;;
14187;SDS011;7175;51.978;5.330;2023-02-15T02:34:02;109.00;;;101.20;;
14187;SDS011;7175;51.978;5.330;2023-02-15T02:36:34;111.23;;;103.33;;
14187;SDS011;7175;51.978;5.330;2023-02-15T02:39:12;112.63;;;104.63;;
14187;SDS011;7175;51.978;5.330;2023-02-15T02:41:50;111.33;;;103.53;;
14187;SDS011;7175;51.978;5.330;2023-02-15T02:44:24;114.23;;;106.43;;
14187;SDS011;7175;51.978;5.330;2023-02-15T02:46:57;105.93;;;98.37;;
14187;SDS011;7175;51.978;5.330;2023-02-15T02:49:32;105.40;;;97.90;;
14187;SDS011;7175;51.978;5.330;2023-02-15T02:52:01;106.73;;;98.97;;
14187;SDS011;7175;51.978;5.330;2023-02-15T02:54:32;106.77;;;99.17;;
14187;SDS011;7175;51.978;5.330;2023-02-15T02:57:02;111.50;;;103.30;;
14187;SDS011;7175;51.978;5.330;2023-02-15T02:59:33;111.60;;;103.70;;
14187;SDS011;7175;51.978;5.330;2023-02-15T03:02:07;109.63;;;101.83;;
14187;SDS011;7175;51.978;5.330;2023-02-15T03:04:42;108.73;;;101.07;;
14187;SDS011;7175;51.978;5.330;2023-02-15T03:07:15;110.93;;;103.13;;
14187;SDS011;7175;51.978;5.330;2023-02-15T03:09:49;102.87;;;95.60;;
14187;SDS011;7175;51.978;5.330;2023-02-15T03:12:19;104.17;;;96.53;;
14187;SDS011;7175;51.978;5.330;2023-02-15T03:14:50;105.00;;;97.50;;
14187;SDS011;7175;51.978;5.330;2023-02-15T03:17:20;106.53;;;98.93;;
14187;SDS011;7175;51.978;5.330;2023-02-15T03:19:52;106.07;;;98.53;;
14187;SDS011;7175;51.978;5.330;2023-02-15T03:22:25;103.53;;;96.13;;
14187;SDS011;7175;51.978;5.330;2023-02-15T03:24:58;104.93;;;97.43;;
14187;SDS011;7175;51.978;5.330;2023-02-15T03:27:31;105.67;;;98.07;;
14187;SDS011;7175;51.978;5.330;2023-02-15T03:30:02;103.00;;;95.30;;
14187;SDS011;7175;51.978;5.330;2023-02-15T03:32:33;102.30;;;94.80;;
14187;SDS011;7175;51.978;5.330;2023-02-15T03:35:05;102.53;;;95.13;;
14187;SDS011;7175;51.978;5.330;2023-02-15T03:37:36;99.70;;;92.27;;
14187;SDS011;7175;51.978;5.330;2023-02-15T03:40:09;101.70;;;94.20;;
14187;SDS011;7175;51.978;5.330;2023-02-15T03:43:03;105.83;;;98.07;;
14187;SDS011;7175;51.978;5.330;2023-02-15T03:45:38;104.03;;;96.23;;
14187;SDS011;7175;51.978;5.330;2023-02-15T03:48:22;105.17;;;97.47;;
14187;SDS011;7175;51.978;5.330;2023-02-15T03:50:54;103.17;;;95.47;;
14187;SDS011;7175;51.978;5.330;2023-02-15T03:53:43;100.80;;;93.30;;
14187;SDS011;7175;51.978;5.330;2023-02-15T03:56:14;104.00;;;96.40;;
14187;SDS011;7175;51.978;5.330;2023-02-15T03:58:42;103.43;;;95.93;;
14187;SDS011;7175;51.978;5.330;2023-02-15T04:01:30;107.10;;;99.10;;
14187;SDS011;7175;51.978;5.330;2023-02-15T04:04:20;106.60;;;98.80;;
14187;SDS011;7175;51.978;5.330;2023-02-15T04:06:52;107.17;;;99.27;;
14187;SDS011;7175;51.978;5.330;2023-02-15T04:09:20;104.30;;;96.70;;
14187;SDS011;7175;51.978;5.330;2023-02-15T04:12:06;105.07;;;97.27;;
14187;SDS011;7175;51.978;5.330;2023-02-15T04:14:34;106.83;;;98.93;;
14187;SDS011;7175;51.978;5.330;2023-02-15T04:17:20;101.40;;;93.80;;
14187;SDS011;7175;51.978;5.330;2023-02-15T04:19:48;104.87;;;96.97;;
14187;SDS011;7175;51.978;5.330;2023-02-15T04:22:35;103.73;;;95.83;;
14187;SDS011;7175;51.978;5.330;2023-02-15T04:25:20;107.40;;;99.37;;
14187;SDS011;7175;51.978;5.330;2023-02-15T04:27:49;102.57;;;94.70;;
14187;SDS011;7175;51.978;5.330;2023-02-15T04:30:19;103.80;;;95.80;;
14187;SDS011;7175;51.978;5.330;2023-02-15T04:32:50;101.13;;;93.33;;
14187;SDS011;7175;51.978;5.330;2023-02-15T04:35:18;100.50;;;92.80;;
14187;SDS011;7175;51.978;5.330;2023-02-15T04:37:48;98.90;;;91.20;;
14187;SDS011;7175;51.978;5.330;2023-02-15T04:40:16;95.50;;;88.20;;
14187;SDS011;7175;51.978;5.330;2023-02-15T04:42:46;99.87;;;92.37;;
14187;SDS011;7175;51.978;5.330;2023-02-15T04:45:16;98.53;;;91.13;;
14187;SDS011;7175;51.978;5.330;2023-02-15T04:47:44;101.30;;;93.80;;
14187;SDS011;7175;51.978;5.330;2023-02-15T04:50:12;104.00;;;96.20;;
14187;SDS011;7175;51.978;5.330;2023-02-15T04:52:40;101.00;;;93.43;;
14187;SDS011;7175;51.978;5.330;2023-02-15T04:55:10;100.07;;;92.47;;
14187;SDS011;7175;51.978;5.330;2023-02-15T04:57:38;101.93;;;94.10;;
14187;SDS011;7175;51.978;5.330;2023-02-15T05:00:06;104.80;;;96.97;;
14187;SDS011;7175;51.978;5.330;2023-02-15T05:02:36;104.50;;;96.10;;
14187;SDS011;7175;51.978;5.330;2023-02-15T05:05:04;104.17;;;96.27;;
14187;SDS011;7175;51.978;5.330;2023-02-15T05:07:33;103.27;;;95.77;;
14187;SDS011;7175;51.978;5.330;2023-02-15T05:10:01;100.87;;;93.17;;
14187;SDS011;7175;51.978;5.330;2023-02-15T05:12:31;101.27;;;93.47;;
14187;SDS011;7175;51.978;5.330;2023-02-15T05:14:59;97.23;;;89.83;;
14187;SDS011;7175;51.978;5.330;2023-02-15T05:17:27;95.77;;;88.37;;
14187;SDS011;7175;51.978;5.330;2023-02-15T05:19:55;100.53;;;92.47;;
14187;SDS011;7175;51.978;5.330;2023-02-15T05:22:23;98.83;;;91.43;;
14187;SDS011;7175;51.978;5.330;2023-02-15T05:24:51;95.37;;;87.93;;
14187;SDS011;7175;51.978;5.330;2023-02-15T05:27:38;96.73;;;89.13;;
14187;SDS011;7175;51.978;5.330;2023-02-15T05:30:23;92.97;;;85.57;;
14187;SDS011;7175;51.978;5.330;2023-02-15T05:32:52;91.47;;;84.27;;
14187;SDS011;7175;51.978;5.330;2023-02-15T05:35:20;85.30;;;78.40;;
14187;SDS011;7175;51.978;5.330;2023-02-15T05:37:48;87.27;;;80.27;;
14187;SDS011;7175;51.978;5.330;2023-02-15T05:40:16;92.00;;;84.80;;
14187;SDS011;7175;51.978;5.330;2023-02-15T05:42:46;88.03;;;81.23;;
14187;SDS011;7175;51.978;5.330;2023-02-15T05:45:14;96.00;;;88.37;;
14187;SDS011;7175;51.978;5.330;2023-02-15T05:47:42;91.67;;;84.57;;
14187;SDS011;7175;51.978;5.330;2023-02-15T05:50:11;87.03;;;80.03;;
14187;SDS011;7175;51.978;5.330;2023-02-15T05:52:39;88.53;;;81.63;;
14187;SDS011;7175;51.978;5.330;2023-02-15T05:55:07;93.47;;;86.23;;
14187;SDS011;7175;51.978;5.330;2023-02-15T05:57:36;92.00;;;84.93;;
14187;SDS011;7175;51.978;5.330;2023-02-15T06:00:06;85.70;;;78.90;;
14187;SDS011;7175;51.978;5.330;2023-02-15T06:02:36;89.73;;;82.83;;
14187;SDS011;7175;51.978;5.330;2023-02-15T06:05:05;93.80;;;86.70;;
14187;SDS011;7175;51.978;5.330;2023-02-15T06:07:33;91.07;;;84.07;;
14187;SDS011;7175;51.978;5.330;2023-02-15T06:10:02;93.87;;;86.67;;
14187;SDS011;7175;51.978;5.330;2023-02-15T06:12:30;97.17;;;89.60;;
14187;SDS011;7175;51.978;5.330;2023-02-15T06:14:58;94.83;;;87.50;;
14187;SDS011;7175;51.978;5.330;2023-02-15T06:17:28;99.80;;;92.20;;
14187;SDS011;7175;51.978;5.330;2023-02-15T06:19:56;95.20;;;87.90;;
14187;SDS011;7175;51.978;5.330;2023-02-15T06:22:24;97.73;;;89.20;;
14187;SDS011;7175;51.978;5.330;2023-02-15T06:24:52;90.33;;;83.37;;
14187;SDS011;7175;51.978;5.330;2023-02-15T06:27:20;91.07;;;83.97;;
14187;SDS011;7175;51.978;5.330;2023-02-15T06:29:48;91.47;;;84.27;;
14187;SDS011;7175;51.978;5.330;2023-02-15T06:32:16;86.70;;;79.70;;
14187;SDS011;7175;51.978;5.330;2023-02-15T06:34:46;89.10;;;81.90;;
14187;SDS011;7175;51.978;5.330;2023-02-15T06:37:14;107.17;;;99.07;;
14187;SDS011;7175;51.978;5.330;2023-02-15T06:39:42;114.20;;;105.50;;
14187;SDS011;7175;51.978;5.330;2023-02-15T06:42:11;113.03;;;104.33;;
14187;SDS011;7175;51.978;5.330;2023-02-15T06:44:39;108.10;;;99.70;;
14187;SDS011;7175;51.978;5.330;2023-02-15T06:47:07;107.03;;;98.53;;
14187;SDS011;7175;51.978;5.330;2023-02-15T06:49:35;111.53;;;102.83;;
14187;SDS011;7175;51.978;5.330;2023-02-15T06:52:05;110.13;;;101.73;;
14187;SDS011;7175;51.978;5.330;2023-02-15T06:54:33;108.17;;;99.57;;
14187;SDS011;7175;51.978;5.330;2023-02-15T06:57:01;103.87;;;95.57;;
14187;SDS011;7175;51.978;5.330;2023-02-15T06:59:29;106.13;;;97.63;;
14187;SDS011;7175;51.978;5.330;2023-02-15T07:01:57;100.77;;;92.67;;
14187;SDS011;7175;51.978;5.330;2023-02-15T07:04:25;108.65;;;99.85;;
14187;SDS011;7175;51.978;5.330;2023-02-15T07:06:55;104.50;;;96.10;;
14187;SDS011;7175;51.978;5.330;2023-02-15T07:09:24;101.63;;;93.43;;
14187;SDS011;7175;51.978;5.330;2023-02-15T07:11:53;107.70;;;99.30;;
14187;SDS011;7175;51.978;5.330;2023-02-15T07:14:38;108.13;;;99.83;;
14187;SDS011;7175;51.978;5.330;2023-02-15T07:17:07;109.90;;;101.50;;
14187;SDS011;7175;51.978;5.330;2023-02-15T07:19:55;105.60;;;97.33;;
14187;SDS011;7175;51.978;5.330;2023-02-15T07:22:23;108.17;;;99.83;;
14187;SDS011;7175;51.978;5.330;2023-02-15T07:24:52;104.67;;;96.47;;
14187;SDS011;7175;51.978;5.330;2023-02-15T07:27:21;106.03;;;97.83;;
14187;SDS011;7175;51.978;5.330;2023-02-15T07:29:49;108.70;;;100.30;;
14187;SDS011;7175;51.978;5.330;2023-02-15T07:32:17;108.50;;;100.13;;
14187;SDS011;7175;51.978;5.330;2023-02-15T07:34:45;103.63;;;95.53;;
14187;SDS011;7175;51.978;5.330;2023-02-15T07:37:14;106.63;;;98.43;;
14187;SDS011;7175;51.978;5.330;2023-02-15T07:39:42;108.53;;;100.13;;
14187;SDS011;7175;51.978;5.330;2023-02-15T07:42:11;106.03;;;97.77;;
14187;SDS011;7175;51.978;5.330;2023-02-15T07:44:39;110.97;;;102.57;;
14187;SDS011;7175;51.978;5.330;2023-02-15T07:47:08;113.03;;;104.53;;
14187;SDS011;7175;51.978;5.330;2023-02-15T07:49:36;113.30;;;104.80;;
14187;SDS011;7175;51.978;5.330;2023-02-15T07:52:04;119.00;;;110.10;;
14187;SDS011;7175;51.978;5.330;2023-02-15T07:54:32;119.60;;;110.70;;
14187;SDS011;7175;51.978;5.330;2023-02-15T07:57:00;121.50;;;112.60;;
14187;SDS011;7175;51.978;5.330;2023-02-15T07:59:30;123.40;;;114.40;;
14187;SDS011;7175;51.978;5.330;2023-02-15T08:01:58;120.17;;;111.50;;
14187;SDS011;7175;51.978;5.330;2023-02-15T08:04:26;124.40;;;115.47;;
14187;SDS011;7175;51.978;5.330;2023-02-15T08:06:55;121.97;;;113.20;;
14187;SDS011;7175;51.978;5.330;2023-02-15T08:09:23;122.03;;;113.20;;
14187;SDS011;7175;51.978;5.330;2023-02-15T08:11:51;119.90;;;111.13;;
14187;SDS011;7175;51.978;5.330;2023-02-15T08:14:19;120.57;;;111.77;;
14187;SDS011;7175;51.978;5.330;2023-02-15T08:16:50;121.93;;;113.07;;
14187;SDS011;7175;51.978;5.330;2023-02-15T08:19:20;118.30;;;109.57;;
14187;SDS011;7175;51.978;5.330;2023-02-15T08:21:50;118.60;;;109.83;;
14187;SDS011;7175;51.978;5.330;2023-02-15T08:24:20;122.33;;;113.37;;
14187;SDS011;7175;51.978;5.330;2023-02-15T08:26:51;119.20;;;110.43;;
14187;SDS011;7175;51.978;5.330;2023-02-15T08:29:20;119.17;;;109.57;;
14187;SDS011;7175;51.978;5.330;2023-02-15T08:31:52;119.73;;;110.87;;
14187;SDS011;7175;51.978;5.330;2023-02-15T08:34:21;119.33;;;110.20;;
14187;SDS011;7175;51.978;5.330;2023-02-15T08:36:49;119.73;;;110.83;;
14187;SDS011;7175;51.978;5.330;2023-02-15T08:39:17;120.57;;;111.57;;
14187;SDS011;7175;51.978;5.330;2023-02-15T08:41:46;120.30;;;111.30;;
14187;SDS011;7175;51.978;5.330;2023-02-15T08:44:15;118.10;;;109.30;;
14187;SDS011;7175;51.978;5.330;2023-02-15T08:46:45;110.90;;;102.50;;
14187;SDS011;7175;51.978;5.330;2023-02-15T08:49:16;103.90;;;96.10;;
14187;SDS011;7175;51.978;5.330;2023-02-15T08:51:45;102.37;;;94.67;;
14187;SDS011;7175;51.978;5.330;2023-02-15T08:54:16;99.90;;;92.50;;
14187;SDS011;7175;51.978;5.330;2023-02-15T08:56:47;93.23;;;86.23;;
14187;SDS011;7175;51.978;5.330;2023-02-15T08:59:16;97.47;;;90.23;;
14187;SDS011;7175;51.978;5.330;2023-02-15T09:01:46;103.17;;;95.67;;
14187;SDS011;7175;51.978;5.330;2023-02-15T09:04:16;94.97;;;87.57;;
14187;SDS011;7175;51.978;5.330;2023-02-15T09:06:46;91.33;;;84.53;;
14187;SDS011;7175;51.978;5.330;2023-02-15T09:09:15;87.10;;;80.50;;
14187;SDS011;7175;51.978;5.330;2023-02-15T09:11:44;78.57;;;72.60;;
14187;SDS011;7175;51.978;5.330;2023-02-15T09:14:15;83.60;;;77.30;;
14187;SDS011;7175;51.978;5.330;2023-02-15T09:16:45;79.57;;;73.70;;
14187;SDS011;7175;51.978;5.330;2023-02-15T09:19:18;76.97;;;71.37;;
14187;SDS011;7175;51.978;5.330;2023-02-15T09:21:48;75.27;;;69.73;;
14187;SDS011;7175;51.978;5.330;2023-02-15T09:24:16;75.33;;;69.63;;
14187;SDS011;7175;51.978;5.330;2023-02-15T09:26:45;74.90;;;69.47;;
14187;SDS011;7175;51.978;5.330;2023-02-15T09:29:15;73.13;;;67.93;;
14187;SDS011;7175;51.978;5.330;2023-02-15T09:31:45;70.80;;;65.80;;
14187;SDS011;7175;51.978;5.330;2023-02-15T09:34:15;71.13;;;66.20;;
14187;SDS011;7175;51.978;5.330;2023-02-15T09:36:46;65.30;;;60.60;;
14187;SDS011;7175;51.978;5.330;2023-02-15T09:39:15;67.63;;;62.93;;
14187;SDS011;7175;51.978;5.330;2023-02-15T09:41:49;70.27;;;65.57;;
14187;SDS011;7175;51.978;5.330;2023-02-15T09:44:50;70.10;;;65.40;;
14187;SDS011;7175;51.978;5.330;2023-02-15T09:47:44;62.33;;;58.13;;
14187;SDS011;7175;51.978;5.330;2023-02-15T09:50:27;58.37;;;54.37;;
14187;SDS011;7175;51.978;5.330;2023-02-15T09:55:57;47.10;;;43.80;;
14187;SDS011;7175;51.978;5.330;2023-02-15T09:58:32;48.90;;;45.50;;
14187;SDS011;7175;51.978;5.330;2023-02-15T10:01:08;47.07;;;43.77;;
14187;SDS011;7175;51.978;5.330;2023-02-15T10:03:50;44.67;;;41.47;;
14187;SDS011;7175;51.978;5.330;2023-02-15T10:06:35;46.33;;;43.10;;
14187;SDS011;7175;51.978;5.330;2023-02-15T10:09:20;44.33;;;41.23;;
14187;SDS011;7175;51.978;5.330;2023-02-15T10:12:04;39.03;;;36.23;;
14187;SDS011;7175;51.978;5.330;2023-02-15T10:14:56;37.40;;;34.53;;
14187;SDS011;7175;51.978;5.330;2023-02-15T10:18:05;33.13;;;30.67;;
14187;SDS011;7175;51.978;5.330;2023-02-15T10:20:45;33.17;;;30.47;;
14187;SDS011;7175;51.978;5.330;2023-02-15T10:23:25;31.43;;;29.07;;
14187;SDS011;7175;51.978;5.330;2023-02-15T10:26:04;31.10;;;28.73;;
14187;SDS011;7175;51.978;5.330;2023-02-15T10:28:42;30.60;;;28.30;;
14187;SDS011;7175;51.978;5.330;2023-02-15T10:31:24;28.73;;;26.43;;
14187;SDS011;7175;51.978;5.330;2023-02-15T10:34:05;30.17;;;27.43;;
14187;SDS011;7175;51.978;5.330;2023-02-15T10:36:53;25.67;;;23.63;;
14187;SDS011;7175;51.978;5.330;2023-02-15T10:39:39;23.90;;;21.90;;
14187;SDS011;7175;51.978;5.330;2023-02-15T10:42:16;25.33;;;23.23;;
14187;SDS011;7175;51.978;5.330;2023-02-15T10:44:54;23.43;;;21.53;;
14187;SDS011;7175;51.978;5.330;2023-02-15T10:47:35;22.50;;;20.60;;
14187;SDS011;7175;51.978;5.330;2023-02-15T10:50:16;21.37;;;19.57;;
14187;SDS011;7175;51.978;5.330;2023-02-15T10:52:54;22.50;;;20.60;;
14187;SDS011;7175;51.978;5.330;2023-02-15T10:55:54;21.93;;;20.13;;
14187;SDS011;7175;51.978;5.330;2023-02-15T10:58:29;21.77;;;19.97;;
14187;SDS011;7175;51.978;5.330;2023-02-15T11:01:08;22.50;;;20.60;;
14187;SDS011;7175;51.978;5.330;2023-02-15T11:03:54;19.57;;;17.97;;
14187;SDS011;7175;51.978;5.330;2023-02-15T11:06:35;20.90;;;19.20;;
14187;SDS011;7175;51.978;5.330;2023-02-15T11:09:08;20.60;;;19.00;;
14187;SDS011;7175;51.978;5.330;2023-02-15T11:11:44;19.10;;;17.57;;
14187;SDS011;7175;51.978;5.330;2023-02-15T11:14:17;21.13;;;19.43;;
14187;SDS011;7175;51.978;5.330;2023-02-15T11:16:51;17.77;;;16.37;;
14187;SDS011;7175;51.978;5.330;2023-02-15T11:19:26;19.97;;;18.30;;
14187;SDS011;7175;51.978;5.330;2023-02-15T11:21:59;18.73;;;17.33;;
14187;SDS011;7175;51.978;5.330;2023-02-15T11:24:30;19.57;;;17.97;;
14187;SDS011;7175;51.978;5.330;2023-02-15T11:27:05;18.87;;;17.10;;
14187;SDS011;7175;51.978;5.330;2023-02-15T11:29:48;19.00;;;17.40;;
14187;SDS011;7175;51.978;5.330;2023-02-15T11:32:22;18.00;;;16.60;;
14187;SDS011;7175;51.978;5.330;2023-02-15T11:34:53;19.60;;;17.90;;
14187;SDS011;7175;51.978;5.330;2023-02-15T11:37:27;19.07;;;17.63;;
14187;SDS011;7175;51.978;5.330;2023-02-15T11:40:01;17.97;;;16.63;;
14187;SDS011;7175;51.978;5.330;2023-02-15T11:42:35;19.57;;;18.07;;
14187;SDS011;7175;51.978;5.330;2023-02-15T11:45:04;19.90;;;18.40;;
14187;SDS011;7175;51.978;5.330;2023-02-15T11:47:45;18.60;;;17.20;;
14187;SDS011;7175;51.978;5.330;2023-02-15T11:50:13;19.23;;;17.60;;
14187;SDS011;7175;51.978;5.330;2023-02-15T11:52:44;18.60;;;17.20;;
14187;SDS011;7175;51.978;5.330;2023-02-15T11:55:12;19.40;;;17.87;;
14187;SDS011;7175;51.978;5.330;2023-02-15T11:57:47;18.97;;;17.47;;
14187;SDS011;7175;51.978;5.330;2023-02-15T12:00:24;19.20;;;17.27;;
14187;SDS011;7175;51.978;5.330;2023-02-15T12:03:04;19.13;;;17.53;;
14187;SDS011;7175;51.978;5.330;2023-02-15T12:05:42;18.60;;;17.10;;
14187;SDS011;7175;51.978;5.330;2023-02-15T12:08:17;19.57;;;18.10;;
14187;SDS011;7175;51.978;5.330;2023-02-15T12:10:57;18.30;;;17.00;;
14187;SDS011;7175;51.978;5.330;2023-02-15T12:13:31;19.13;;;17.67;;
14187;SDS011;7175;51.978;5.330;2023-02-15T12:16:06;18.33;;;16.93;;
14187;SDS011;7175;51.978;5.330;2023-02-15T12:18:39;18.60;;;17.20;;
14187;SDS011;7175;51.978;5.330;2023-02-15T12:21:11;19.80;;;18.33;;
14187;SDS011;7175;51.978;5.330;2023-02-15T12:23:41;19.47;;;17.97;;
14187;SDS011;7175;51.978;5.330;2023-02-15T12:26:14;19.63;;;18.10;;
14187;SDS011;7175;51.978;5.330;2023-02-15T12:28:51;18.70;;;17.30;;
14187;SDS011;7175;51.978;5.330;2023-02-15T12:31:24;20.33;;;18.83;;
14187;SDS011;7175;51.978;5.330;2023-02-15T12:33:57;18.50;;;17.13;;
14187;SDS011;7175;51.978;5.330;2023-02-15T12:36:29;19.13;;;17.73;;
14187;SDS011;7175;51.978;5.330;2023-02-15T12:39:14;18.37;;;16.97;;
14187;SDS011;7175;51.978;5.330;2023-02-15T12:41:56;19.23;;;17.80;;
14187;SDS011;7175;51.978;5.330;2023-02-15T12:44:28;18.17;;;16.77;;
14187;SDS011;7175;51.978;5.330;2023-02-15T12:46:59;20.43;;;18.83;;
14187;SDS011;7175;51.978;5.330;2023-02-15T12:49:29;19.73;;;18.23;;
14187;SDS011;7175;51.978;5.330;2023-02-15T12:51:59;18.47;;;17.07;;
14187;SDS011;7175;51.978;5.330;2023-02-15T12:54:30;18.43;;;17.03;;
14187;SDS011;7175;51.978;5.330;2023-02-15T12:59:54;19.07;;;17.47;;
14187;SDS011;7175;51.978;5.330;2023-02-15T13:02:28;19.30;;;17.80;;
14187;SDS011;7175;51.978;5.330;2023-02-15T13:05:10;17.83;;;16.47;;
14187;SDS011;7175;51.978;5.330;2023-02-15T13:07:45;18.10;;;16.70;;
14187;SDS011;7175;51.978;5.330;2023-02-15T13:10:24;18.47;;;17.03;;
14187;SDS011;7175;51.978;5.330;2023-02-15T13:12:54;18.53;;;17.13;;
14187;SDS011;7175;51.978;5.330;2023-02-15T13:15:27;18.03;;;16.73;;
14187;SDS011;7175;51.978;5.330;2023-02-15T13:17:58;18.27;;;16.87;;
14187;SDS011;7175;51.978;5.330;2023-02-15T13:20:28;19.50;;;17.70;;
14187;SDS011;7175;51.978;5.330;2023-02-15T13:22:58;19.23;;;17.77;;
14187;SDS011;7175;51.978;5.330;2023-02-15T13:25:32;17.97;;;16.50;;
14187;SDS011;7175;51.978;5.330;2023-02-15T13:28:14;17.50;;;16.10;;
14187;SDS011;7175;51.978;5.330;2023-02-15T13:30:45;17.80;;;16.40;;
14187;SDS011;7175;51.978;5.330;2023-02-15T13:33:17;18.37;;;16.97;;
14187;SDS011;7175;51.978;5.330;2023-02-15T13:35:56;18.20;;;16.80;;
14187;SDS011;7175;51.978;5.330;2023-02-15T13:38:39;18.33;;;16.93;;
14187;SDS011;7175;51.978;5.330;2023-02-15T13:41:14;20.87;;;19.23;;
14187;SDS011;7175;51.978;5.330;2023-02-15T13:43:50;17.70;;;16.30;;
14187;SDS011;7175;51.978;5.330;2023-02-15T13:46:31;20.03;;;18.43;;
14187;SDS011;7175;51.978;5.330;2023-02-15T13:49:14;19.37;;;17.83;;
14187;SDS011;7175;51.978;5.330;2023-02-15T13:51:50;19.40;;;17.90;;
14187;SDS011;7175;51.978;5.330;2023-02-15T13:54:28;19.80;;;18.20;;
14187;SDS011;7175;51.978;5.330;2023-02-15T14:00:11;18.93;;;17.50;;
14187;SDS011;7175;51.978;5.330;2023-02-15T14:05:58;18.93;;;17.43;;
14187;SDS011;7175;51.978;5.330;2023-02-15T14:08:44;21.03;;;19.33;;
14187;SDS011;7175;51.978;5.330;2023-02-15T14:11:21;17.07;;;15.77;;
14187;SDS011;7175;51.978;5.330;2023-02-15T14:14:04;18.37;;;16.97;;
14187;SDS011;7175;51.978;5.330;2023-02-15T14:16:54;18.50;;;17.07;;
14187;SDS011;7175;51.978;5.330;2023-02-15T14:19:37;18.60;;;17.20;;
14187;SDS011;7175;51.978;5.330;2023-02-15T14:22:14;17.80;;;16.37;;
14187;SDS011;7175;51.978;5.330;2023-02-15T14:24:54;18.00;;;16.57;;
14187;SDS011;7175;51.978;5.330;2023-02-15T14:27:35;18.77;;;17.37;;
14187;SDS011;7175;51.978;5.330;2023-02-15T14:30:13;18.30;;;16.90;;
14187;SDS011;7175;51.978;5.330;2023-02-15T14:32:44;19.57;;;18.07;;
14187;SDS011;7175;51.978;5.330;2023-02-15T14:35:17;21.50;;;19.70;;
14187;SDS011;7175;51.978;5.330;2023-02-15T14:37:49;20.60;;;18.80;;
14187;SDS011;7175;51.978;5.330;2023-02-15T14:40:29;19.23;;;17.53;;
14187;SDS011;7175;51.978;5.330;2023-02-15T14:43:21;18.93;;;17.33;;
14187;SDS011;7175;51.978;5.330;2023-02-15T14:45:58;19.80;;;18.20;;
14187;SDS011;7175;51.978;5.330;2023-02-15T14:48:36;18.53;;;17.13;;
14187;SDS011;7175;51.978;5.330;2023-02-15T14:51:10;20.00;;;18.50;;
14187;SDS011;7175;51.978;5.330;2023-02-15T14:57:33;18.83;;;17.23;;
14187;SDS011;7175;51.978;5.330;2023-02-15T15:03:01;21.40;;;19.10;;
14187;SDS011;7175;51.978;5.330;2023-02-15T15:05:31;19.17;;;17.77;;
14187;SDS011;7175;51.978;5.330;2023-02-15T15:08:03;19.83;;;18.13;;
14187;SDS011;7175;51.978;5.330;2023-02-15T15:10:34;19.30;;;17.70;;
14187;SDS011;7175;51.978;5.330;2023-02-15T15:16:30;18.10;;;16.70;;
14187;SDS011;7175;51.978;5.330;2023-02-15T15:22:39;18.73;;;17.33;;
14187;SDS011;7175;51.978;5.330;2023-02-15T15:25:10;19.03;;;17.63;;
14187;SDS011;7175;51.978;5.330;2023-02-15T15:28:00;18.90;;;17.50;;